createdAt,value
2019-05-13T00:01:27.159Z,98882.63
2019-05-13T00:04:33.902Z,98885.40
2019-05-13T00:07:40.521Z,98888.10
2019-05-13T00:10:48.294Z,98886.08
2019-05-13T00:13:54.872Z,98895.30
2019-05-13T00:17:03.997Z,98896.55
2019-05-13T00:20:10.244Z,98898.46
2019-05-13T00:23:16.760Z,98899.05
2019-05-13T00:26:24.469Z,98903.97
2019-05-13T00:29:31.177Z,98901.42
2019-05-13T00:32:37.836Z,98904.14
2019-05-13T00:35:44.801Z,98906.78
2019-05-13T00:38:53.546Z,98904.95
2019-05-13T00:42:00.090Z,98918.83
2019-05-13T00:45:08.226Z,98919.61
2019-05-13T00:48:14.747Z,98923.84
2019-05-13T00:51:24.408Z,98922.59
2019-05-13T00:54:29.789Z,98927.16
2019-05-13T00:57:36.328Z,98920.88
2019-05-13T01:00:44.373Z,98920.39
2019-05-13T01:03:53.175Z,98923.53
2019-05-13T01:06:59.244Z,98927.20
2019-05-13T01:10:06.655Z,98932.87
2019-05-13T01:13:13.766Z,98928.08
2019-05-13T01:16:23.423Z,98930.83
2019-05-13T01:19:30.479Z,98930.80
2019-05-13T01:22:37.522Z,98935.28
2019-05-13T01:25:44.739Z,98932.33
2019-05-13T01:28:55.366Z,98934.48
2019-05-13T01:32:04.260Z,98937.02
2019-05-13T01:35:10.655Z,98933.21
2019-05-13T01:38:17.207Z,98939.36
2019-05-13T01:41:24.128Z,98936.02
2019-05-13T01:44:32.943Z,98944.55
2019-05-13T01:47:39.001Z,98943.63
2019-05-13T01:50:49.143Z,98941.69
2019-05-13T01:53:55.651Z,98945.06
2019-05-13T01:57:04.354Z,98946.52
2019-05-13T02:00:13.784Z,98943.02
2019-05-13T02:03:19.714Z,98944.49
2019-05-13T02:06:26.239Z,98948.70
2019-05-13T02:09:33.919Z,98942.47
2019-05-13T02:12:44.295Z,98956.46
2019-05-13T02:15:50.446Z,98959.75
2019-05-13T02:18:56.941Z,98960.42
2019-05-13T02:22:05.931Z,98958.70
2019-05-13T02:25:13.917Z,98962.95
2019-05-13T02:28:20.691Z,98961.42
2019-05-13T02:31:44.960Z,98967.27
2019-05-13T02:34:35.485Z,98967.83
2019-05-13T02:37:43.487Z,98968.41
2019-05-13T02:40:52.653Z,98968.81
2019-05-13T02:43:58.839Z,98971.45
2019-05-13T02:47:05.297Z,98971.88
2019-05-13T02:50:13.086Z,98970.17
2019-05-13T02:53:23.228Z,98967.81
2019-05-13T02:56:28.108Z,98976.12
2019-05-13T02:59:34.897Z,98977.37
2019-05-13T03:02:43.755Z,98978.36
2019-05-13T03:05:52.782Z,98980.59
2019-05-13T03:08:59.123Z,98982.31
2019-05-13T03:12:05.589Z,98983.59
2019-05-13T03:15:13.388Z,98985.27
2019-05-13T03:18:22.593Z,98993.86
2019-05-13T03:21:28.349Z,98993.10
2019-05-13T03:24:38.029Z,98994.92
2019-05-13T03:27:44.904Z,99002.56
2019-05-13T03:30:56.440Z,99001.77
2019-05-13T03:34:05.567Z,99007.00
2019-05-13T03:37:14.684Z,99010.83
2019-05-13T03:40:17.714Z,99012.50
2019-05-13T03:43:25.110Z,99020.38
2019-05-13T03:46:34.462Z,99014.77
2019-05-13T03:49:45.073Z,99011.47
2019-05-13T03:52:52.484Z,99019.50
2019-05-13T03:56:02.447Z,99019.41
2019-05-13T03:59:08.070Z,99026.39
2019-05-13T04:02:15.044Z,99025.93
2019-05-13T04:05:23.678Z,99028.80
2019-05-13T04:08:32.677Z,99027.80
2019-05-13T04:11:42.369Z,99030.50
2019-05-13T04:14:52.811Z,99034.09
2019-05-13T04:18:02.805Z,99036.98
2019-05-13T04:21:07.919Z,99035.64
2019-05-13T04:24:14.610Z,99039.56
2019-05-13T04:27:23.270Z,99036.54
2019-05-13T04:30:32.781Z,99042.66
2019-05-13T04:33:38.060Z,99047.72
2019-05-13T04:36:46.215Z,99047.28
2019-05-13T04:39:56.465Z,99045.04
2019-05-13T04:43:02.948Z,99050.80
2019-05-13T04:46:13.589Z,99049.52
2019-05-13T04:49:18.157Z,99043.20
2019-05-13T04:52:24.804Z,99049.22
2019-05-13T04:55:33.315Z,99050.11
2019-05-13T04:58:42.873Z,99045.09
2019-05-13T05:02:39.929Z,99055.27
2019-05-13T05:06:48.054Z,99056.05
2019-05-13T05:10:53.561Z,99064.03
2019-05-13T05:14:34.449Z,99068.12
2019-05-13T05:18:22.185Z,99079.41
2019-05-13T05:21:35.533Z,99078.34
2019-05-13T05:25:14.812Z,99081.49
2019-05-13T05:29:11.415Z,99087.56
2019-05-13T05:33:03.103Z,99086.17
2019-05-13T05:36:56.538Z,99090.99
2019-05-13T05:40:06.477Z,99095.42
2019-05-13T05:43:14.954Z,99091.27
2019-05-13T05:46:23.205Z,99094.84
2019-05-13T05:49:31.988Z,99097.55
2019-05-13T05:52:41.949Z,99098.40
2019-05-13T05:55:51.796Z,99105.09
2019-05-13T05:59:02.877Z,99107.52
2019-05-13T06:02:12.101Z,99103.33
2019-05-13T06:05:21.352Z,99105.13
2019-05-13T06:08:28.055Z,99099.28
2019-05-13T06:11:34.887Z,99106.83
2019-05-13T06:14:42.424Z,99100.66
2019-05-13T06:17:51.810Z,99105.55
2019-05-13T06:20:58.616Z,99108.95
2019-05-13T06:24:05.256Z,99110.10
2019-05-13T06:27:12.199Z,99110.27
2019-05-13T06:30:21.530Z,99111.05
2019-05-13T06:33:27.123Z,99115.62
2019-05-13T06:36:34.015Z,99115.70
2019-05-13T06:39:41.985Z,99118.11
2019-05-13T06:42:48.738Z,99120.31
2019-05-13T06:45:55.223Z,99118.82
2019-05-13T06:49:02.950Z,99119.52
2019-05-13T06:52:11.825Z,99114.70
2019-05-13T06:55:18.284Z,99118.45
2019-05-13T06:58:25.171Z,99127.55
2019-05-13T07:01:32.392Z,99122.46
2019-05-13T07:04:41.422Z,99120.80
2019-05-13T07:07:48.620Z,99126.91
2019-05-13T07:10:55.126Z,99132.67
2019-05-13T07:14:02.582Z,99130.69
2019-05-13T07:17:09.496Z,99131.02
2019-05-13T07:20:16.660Z,99131.30
2019-05-13T07:23:23.531Z,99134.08
2019-05-13T07:26:31.482Z,99128.34
2019-05-13T07:29:39.218Z,99130.59
2019-05-13T07:32:46.982Z,99129.12
2019-05-13T07:35:58.188Z,99127.11
2019-05-13T07:39:06.250Z,99126.61
2019-05-13T07:42:12.887Z,99116.30
2019-05-13T07:45:21.316Z,99118.53
2019-05-13T07:48:31.928Z,99110.70
2019-05-13T07:51:38.647Z,99110.52
2019-05-13T07:54:46.887Z,99113.06
2019-05-13T07:57:53.522Z,99121.23
2019-05-13T08:01:02.424Z,99116.20
2019-05-13T08:04:21.149Z,99121.69
2019-05-13T08:07:16.317Z,99114.00
2019-05-13T08:10:23.355Z,99113.61
2019-05-13T08:13:31.447Z,99122.14
2019-05-13T08:16:38.205Z,99120.05
2019-05-13T08:19:46.220Z,99114.06
2019-05-13T08:22:52.873Z,99121.27
2019-05-13T08:26:01.978Z,99113.20
2019-05-13T08:29:07.898Z,99114.88
2019-05-13T08:32:14.470Z,99116.61
2019-05-13T08:35:22.612Z,99119.12
2019-05-13T08:38:31.813Z,99114.45
2019-05-13T08:41:38.068Z,99117.04
2019-05-13T08:44:45.788Z,99111.91
2019-05-13T08:47:52.380Z,99111.34
2019-05-13T08:50:58.908Z,99106.20
2019-05-13T08:54:05.484Z,99118.11
2019-05-13T08:57:14.239Z,99118.59
2019-05-13T09:00:53.090Z,99105.95
2019-05-13T09:04:02.367Z,99115.58
2019-05-13T09:07:08.307Z,99105.66
2019-05-13T09:10:15.083Z,99109.80
2019-05-13T09:13:22.485Z,99107.25
2019-05-13T09:16:32.060Z,99106.06
2019-05-13T09:19:41.264Z,99094.55
2019-05-13T09:22:47.336Z,99098.78
2019-05-13T09:25:53.868Z,99104.63
2019-05-13T09:29:01.472Z,99101.97
2019-05-13T09:32:08.396Z,99102.08
2019-05-13T09:35:15.069Z,99098.61
2019-05-13T09:38:22.282Z,99109.26
2019-05-13T09:41:31.927Z,99105.23
2019-05-13T09:44:41.912Z,99099.03
2019-05-13T09:47:48.799Z,99099.22
2019-05-13T09:50:55.492Z,99098.53
2019-05-13T09:54:02.172Z,99096.33
2019-05-13T09:57:08.939Z,99097.64
2019-05-13T10:00:21.627Z,99102.18
2019-05-13T10:03:29.737Z,99097.41
2019-05-13T10:06:35.683Z,99097.30
2019-05-13T10:09:43.130Z,99097.94
2019-05-13T10:13:07.422Z,99086.05
2019-05-13T10:15:59.720Z,99085.66
2019-05-13T10:19:06.537Z,99079.52
2019-05-13T10:22:13.273Z,99086.14
2019-05-13T10:25:22.407Z,99088.56
2019-05-13T10:28:32.025Z,99085.45
2019-05-13T10:31:38.937Z,99088.30
2019-05-13T10:34:47.035Z,99078.95
2019-05-13T10:37:53.631Z,99084.55
2019-05-13T10:41:02.843Z,99091.98
2019-05-13T10:44:08.510Z,99083.22
2019-05-13T10:47:15.075Z,99082.59
2019-05-13T10:50:24.774Z,99080.82
2019-05-13T10:53:32.068Z,99083.83
2019-05-13T10:56:38.158Z,99081.53
2019-05-13T10:59:46.283Z,99079.40
2019-05-13T11:02:52.893Z,99081.52
2019-05-13T11:05:59.498Z,99081.89
2019-05-13T11:09:08.813Z,99079.79
2019-05-13T11:12:15.375Z,99074.94
2019-05-13T11:15:21.915Z,99077.27
2019-05-13T11:18:28.583Z,99071.22
2019-05-13T11:21:35.208Z,99071.87
2019-05-13T11:24:43.230Z,99073.31
2019-05-13T11:27:52.989Z,99072.48
2019-05-13T11:31:02.404Z,99072.38
2019-05-13T11:34:08.299Z,99065.88
2019-05-13T11:37:14.785Z,99057.58
2019-05-13T11:40:22.518Z,99056.45
2019-05-13T11:43:29.136Z,99064.42
2019-05-13T11:46:36.209Z,99060.59
2019-05-13T11:49:42.984Z,99058.20
2019-05-13T11:52:52.435Z,99056.23
2019-05-13T11:56:03.251Z,99048.27
2019-05-13T11:59:07.999Z,99058.54
2019-05-13T12:02:14.627Z,99051.23
2019-05-13T12:05:22.589Z,99048.27
2019-05-13T12:08:33.114Z,99047.78
2019-05-13T12:11:37.942Z,99045.92
2019-05-13T12:15:18.100Z,99047.66
2019-05-13T12:17:54.484Z,99034.07
2019-05-13T12:21:03.359Z,99031.89
2019-05-13T12:24:11.301Z,99027.45
2019-05-13T12:27:17.737Z,99025.98
2019-05-13T12:30:24.471Z,99021.54
2019-05-13T12:33:32.663Z,99017.63
2019-05-13T12:36:43.320Z,99012.49
2019-05-13T12:39:49.629Z,99013.28
2019-05-13T12:43:01.457Z,99014.55
2019-05-13T12:46:08.715Z,99014.59
2019-05-13T12:49:15.286Z,99013.94
2019-05-13T12:52:22.825Z,99003.62
2019-05-13T12:55:32.834Z,99004.33
2019-05-13T12:58:38.019Z,98984.60
2019-05-13T13:01:46.024Z,99003.69
2019-05-13T13:05:10.473Z,99000.67
2019-05-13T13:08:18.435Z,98997.22
2019-05-13T13:11:09.578Z,98988.92
2019-05-13T13:14:17.296Z,98991.58
2019-05-13T13:17:26.030Z,98981.08
2019-05-13T13:20:35.542Z,98979.81
2019-05-13T13:23:42.825Z,98971.94
2019-05-13T13:26:53.378Z,98958.34
2019-05-13T13:33:08.600Z,98972.98
2019-05-13T13:39:25.208Z,98972.42
2019-05-13T13:42:33.027Z,98966.31
2019-05-13T13:48:48.042Z,98967.66
2019-05-13T13:51:54.527Z,98965.19
2019-05-13T13:55:04.415Z,98966.10
2019-05-13T13:58:09.235Z,98962.43
2019-05-13T14:01:19.742Z,98971.92
2019-05-13T14:04:24.029Z,98967.93
2019-05-13T14:06:58.552Z,98975.62
2019-05-13T14:07:08.884Z,98968.76
2019-05-13T14:07:37.744Z,98958.84
2019-05-13T14:10:38.906Z,98956.47
2019-05-13T14:13:48.413Z,98959.47
2019-05-13T14:16:55.125Z,98958.02
2019-05-13T14:20:01.648Z,98952.28
2019-05-13T14:23:08.412Z,98951.72
2019-05-13T14:26:17.275Z,98948.81
2019-05-13T14:29:37.449Z,98955.77
2019-05-13T14:32:32.176Z,98955.52
2019-05-13T14:35:41.422Z,98951.09
2019-05-13T14:38:47.625Z,98945.20
2019-05-13T14:41:54.227Z,98943.69
2019-05-13T14:45:01.926Z,98950.86
2019-05-13T14:48:08.754Z,98944.70
2019-05-13T14:51:15.200Z,98944.58
2019-05-13T14:54:21.696Z,98939.14
2019-05-13T14:57:28.823Z,98937.50
2019-05-13T15:00:35.357Z,98937.20
2019-05-13T15:03:41.891Z,98922.30
2019-05-13T15:06:48.672Z,98919.98
2019-05-13T15:09:55.200Z,98924.39
2019-05-13T15:13:03.024Z,98925.60
2019-05-13T15:16:09.858Z,98917.27
2019-05-13T15:19:16.653Z,98921.67
2019-05-13T15:22:23.092Z,98920.00
2019-05-13T15:25:31.399Z,98912.77
2019-05-13T15:28:38.175Z,98911.94
2019-05-13T15:31:46.051Z,98912.08
2019-05-13T15:34:52.730Z,98911.33
2019-05-13T15:37:59.330Z,98904.06
2019-05-13T15:41:07.535Z,98903.08
2019-05-13T15:44:14.254Z,98904.48
2019-05-13T15:47:24.103Z,98902.90
2019-05-13T15:50:31.299Z,98892.20
2019-05-13T15:53:38.160Z,98897.23
2019-05-13T15:56:44.866Z,98910.42
2019-05-13T15:59:51.895Z,98909.25
2019-05-13T16:03:01.752Z,98899.16
2019-05-13T16:06:08.249Z,98896.78
2019-05-13T16:09:15.185Z,98901.27
2019-05-13T16:12:23.059Z,98900.55
2019-05-13T16:15:32.097Z,98896.28
2019-05-13T16:18:38.471Z,98902.70
2019-05-13T16:21:46.104Z,98904.06
2019-05-13T16:24:52.723Z,98896.13
2019-05-13T16:28:01.178Z,98898.75
2019-05-13T16:31:07.896Z,98889.77
2019-05-13T16:34:14.431Z,98898.11
2019-05-13T16:37:22.184Z,98888.86
2019-05-13T16:40:33.569Z,98897.20
2019-05-13T16:43:37.565Z,98897.27
2019-05-13T16:46:46.700Z,98892.80
2019-05-13T16:49:53.380Z,98893.88
2019-05-13T16:53:01.905Z,98892.94
2019-05-13T16:56:08.030Z,98887.27
2019-05-13T16:59:14.766Z,98882.52
2019-05-13T17:02:22.863Z,98894.20
2019-05-13T17:05:29.370Z,98890.06
2019-05-13T17:08:36.021Z,98883.30
2019-05-13T17:11:43.391Z,98880.16
2019-05-13T17:14:52.321Z,98881.44
2019-05-13T17:18:09.291Z,98878.44
2019-05-13T17:21:07.867Z,98888.02
2019-05-13T17:24:14.527Z,98882.84
2019-05-13T17:27:21.376Z,98880.27
2019-05-13T17:30:28.000Z,98882.56
2019-05-13T17:33:34.834Z,98883.84
2019-05-13T17:36:42.050Z,98886.42
2019-05-13T17:39:48.971Z,98883.81
2019-05-13T17:42:56.520Z,98888.80
2019-05-13T17:46:03.034Z,98876.05
2019-05-13T17:49:11.800Z,98883.08
2019-05-13T17:52:17.996Z,98883.00
2019-05-13T17:55:24.806Z,98882.65
2019-05-13T17:58:31.889Z,98879.00
2019-05-13T18:01:38.438Z,98875.58
2019-05-13T18:04:48.493Z,98877.06
2019-05-13T18:07:55.082Z,98874.61
2019-05-13T18:11:02.328Z,98874.16
2019-05-13T18:14:11.242Z,98876.88
2019-05-13T18:17:17.283Z,98876.98
2019-05-13T18:20:23.782Z,98879.29
2019-05-13T18:23:30.391Z,98877.33
2019-05-13T18:26:36.845Z,98876.72
2019-05-13T18:29:43.536Z,98879.13
2019-05-13T18:32:51.800Z,98881.59
2019-05-13T18:36:01.558Z,98869.88
2019-05-13T18:39:12.114Z,98880.25
2019-05-13T18:42:17.909Z,98862.31
2019-05-13T18:45:24.686Z,98865.80
2019-05-13T18:48:32.267Z,98864.52
2019-05-13T18:51:42.263Z,98866.27
2019-05-13T18:54:51.413Z,98867.58
2019-05-13T18:58:01.077Z,98871.86
2019-05-13T19:01:07.446Z,98871.02
2019-05-13T19:04:13.975Z,98871.05
2019-05-13T19:07:21.872Z,98868.88
2019-05-13T19:10:28.570Z,98874.81
2019-05-13T19:13:34.977Z,98866.27
2019-05-13T19:16:42.219Z,98860.68
2019-05-13T19:19:51.460Z,98862.36
2019-05-13T19:22:57.981Z,98866.45
2019-05-13T19:26:04.650Z,98864.66
2019-05-13T19:29:11.643Z,98859.28
2019-05-13T19:32:21.847Z,98863.63
2019-05-13T19:35:28.511Z,98858.39
2019-05-13T19:38:35.394Z,98859.86
2019-05-13T19:41:42.435Z,98848.50
2019-05-13T19:44:51.046Z,98855.91
2019-05-13T19:48:01.275Z,98860.98
2019-05-13T19:51:08.126Z,98861.02
2019-05-13T19:54:14.827Z,98859.70
2019-05-13T19:57:21.440Z,98854.61
2019-05-13T20:00:27.952Z,98859.34
2019-05-13T20:03:34.589Z,98852.98
2019-05-13T20:06:41.559Z,98850.36
2019-05-13T20:09:48.390Z,98846.52
2019-05-13T20:12:54.865Z,98840.17
2019-05-13T20:16:01.681Z,98842.75
2019-05-13T20:19:08.813Z,98836.34
2019-05-13T20:22:16.427Z,98845.73
2019-05-13T20:25:22.977Z,98840.33
2019-05-13T20:28:31.647Z,98843.52
2019-05-13T20:31:38.025Z,98838.94
2019-05-13T20:34:47.063Z,98837.84
2019-05-13T20:37:53.562Z,98834.00
2019-05-13T20:41:01.614Z,98838.67
2019-05-13T20:44:08.187Z,98837.86
2019-05-13T20:47:14.690Z,98827.70
2019-05-13T20:50:21.882Z,98830.20
2019-05-13T20:53:31.195Z,98834.09
2019-05-13T20:56:37.721Z,98827.83
2019-05-13T20:59:44.153Z,98825.55
2019-05-13T21:02:51.675Z,98829.80
2019-05-13T21:05:58.533Z,98826.04
2019-05-13T21:09:06.420Z,98828.58
2019-05-13T21:12:13.082Z,98821.50
2019-05-13T21:15:19.893Z,98824.27
2019-05-13T21:18:26.533Z,98820.42
2019-05-13T21:21:33.035Z,98816.77
2019-05-13T21:24:41.224Z,98815.45
2019-05-13T21:27:47.932Z,98816.03
2019-05-13T21:30:54.598Z,98809.64
2019-05-13T21:34:01.490Z,98815.30
2019-05-13T21:37:11.644Z,98804.89
2019-05-13T21:40:21.528Z,98807.98
2019-05-13T21:43:28.380Z,98810.72
2019-05-13T21:46:35.561Z,98807.77
2019-05-13T21:49:42.447Z,98803.20
2019-05-13T21:52:51.463Z,98807.58
2019-05-13T21:55:57.456Z,98808.58
2019-05-13T21:59:05.408Z,98796.82
2019-05-13T22:02:12.135Z,98793.88
2019-05-13T22:05:18.872Z,98798.12
2019-05-13T22:08:25.436Z,98792.10
2019-05-13T22:11:34.720Z,98792.67
2019-05-13T22:14:41.200Z,98793.34
2019-05-13T22:17:51.168Z,98789.11
2019-05-13T22:20:57.291Z,98795.69
2019-05-13T22:24:03.926Z,98800.73
2019-05-13T22:27:13.000Z,98801.64
2019-05-13T22:30:18.803Z,98793.47
2019-05-13T22:33:25.445Z,98783.04
2019-05-13T22:36:31.969Z,98771.82
2019-05-13T22:39:38.517Z,98773.50
2019-05-13T22:42:46.750Z,98773.71
2019-05-13T22:45:54.441Z,98775.22
2019-05-13T22:49:01.228Z,98771.02
2019-05-13T22:52:07.996Z,98772.83
2019-05-13T22:55:14.619Z,98773.39
2019-05-13T22:58:22.498Z,98782.09
2019-05-13T23:01:29.208Z,98788.05
2019-05-13T23:04:36.796Z,98792.00
2019-05-13T23:07:45.997Z,98784.71
2019-05-13T23:10:52.564Z,98773.27
2019-05-13T23:14:09.670Z,98774.12
2019-05-13T23:17:08.838Z,98781.34
2019-05-13T23:20:15.502Z,98781.11
2019-05-13T23:23:23.674Z,98774.40
2019-05-13T23:26:31.540Z,98768.91
2019-05-13T23:29:38.480Z,98763.44
2019-05-13T23:32:45.329Z,98760.50
2019-05-13T23:35:51.904Z,98760.93
2019-05-13T23:38:58.561Z,98757.13
2019-05-13T23:42:07.204Z,98752.33
2019-05-13T23:45:13.773Z,98751.10
2019-05-13T23:48:21.768Z,98751.85
2019-05-13T23:51:28.348Z,98755.48
2019-05-13T23:54:34.989Z,98753.85
2019-05-13T23:57:42.144Z,98755.50
